sensor_id;sensor_type;location;lat;lon;timestamp;P1;durP1;ratioP1;P2;durP2;ratioP2
70545;SDS011;58098;51.680;5.134;2022-09-20T00:01:15;16.33;;;5.70;;
70545;SDS011;58098;51.680;5.134;2022-09-20T00:03:42;13.07;;;5.43;;
70545;SDS011;58098;51.680;5.134;2022-09-20T00:06:08;17.27;;;5.70;;
70545;SDS011;58098;51.680;5.134;2022-09-20T00:08:34;12.98;;;5.78;;
70545;SDS011;58098;51.680;5.134;2022-09-20T00:11:04;11.97;;;5.47;;
70545;SDS011;58098;51.680;5.134;2022-09-20T00:13:30;17.08;;;6.35;;
70545;SDS011;58098;51.680;5.134;2022-09-20T00:15:55;16.87;;;6.27;;
70545;SDS011;58098;51.680;5.134;2022-09-20T00:18:21;18.27;;;6.57;;
70545;SDS011;58098;51.680;5.134;2022-09-20T00:20:47;15.80;;;6.37;;
70545;SDS011;58098;51.680;5.134;2022-09-20T00:23:12;13.63;;;6.45;;
70545;SDS011;58098;51.680;5.134;2022-09-20T00:25:37;19.00;;;6.40;;
70545;SDS011;58098;51.680;5.134;2022-09-20T00:28:03;17.10;;;6.27;;
70545;SDS011;58098;51.680;5.134;2022-09-20T00:30:28;13.77;;;6.20;;
70545;SDS011;58098;51.680;5.134;2022-09-20T00:32:53;14.37;;;5.70;;
70545;SDS011;58098;51.680;5.134;2022-09-20T00:35:19;15.73;;;5.40;;
70545;SDS011;58098;51.680;5.134;2022-09-20T00:37:44;18.90;;;5.37;;
70545;SDS011;58098;51.680;5.134;2022-09-20T00:40:11;10.43;;;5.43;;
70545;SDS011;58098;51.680;5.134;2022-09-20T00:42:37;11.35;;;6.20;;
70545;SDS011;58098;51.680;5.134;2022-09-20T00:45:06;11.70;;;6.20;;
70545;SDS011;58098;51.680;5.134;2022-09-20T00:47:41;15.57;;;5.80;;
70545;SDS011;58098;51.680;5.134;2022-09-20T00:50:13;16.02;;;5.88;;
70545;SDS011;58098;51.680;5.134;2022-09-20T00:52:39;13.55;;;6.55;;
70545;SDS011;58098;51.680;5.134;2022-09-20T00:55:07;15.52;;;7.18;;
70545;SDS011;58098;51.680;5.134;2022-09-20T00:57:33;14.50;;;6.53;;
70545;SDS011;58098;51.680;5.134;2022-09-20T01:00:00;12.90;;;6.25;;
70545;SDS011;58098;51.680;5.134;2022-09-20T01:02:26;17.67;;;6.63;;
70545;SDS011;58098;51.680;5.134;2022-09-20T01:04:53;18.05;;;6.50;;
70545;SDS011;58098;51.680;5.134;2022-09-20T01:07:19;15.53;;;6.40;;
70545;SDS011;58098;51.680;5.134;2022-09-20T01:09:46;13.87;;;5.40;;
70545;SDS011;58098;51.680;5.134;2022-09-20T01:12:12;15.63;;;4.97;;
70545;SDS011;58098;51.680;5.134;2022-09-20T01:14:39;14.53;;;5.40;;
70545;SDS011;58098;51.680;5.134;2022-09-20T01:17:05;19.60;;;5.22;;
70545;SDS011;58098;51.680;5.134;2022-09-20T01:22:18;13.87;;;5.90;;
70545;SDS011;58098;51.680;5.134;2022-09-20T01:24:52;19.40;;;5.78;;
70545;SDS011;58098;51.680;5.134;2022-09-20T01:27:21;14.63;;;5.20;;
70545;SDS011;58098;51.680;5.134;2022-09-20T01:30:04;15.48;;;5.72;;
70545;SDS011;58098;51.680;5.134;2022-09-20T01:35:15;13.27;;;5.37;;
70545;SDS011;58098;51.680;5.134;2022-09-20T01:37:45;17.98;;;5.80;;
70545;SDS011;58098;51.680;5.134;2022-09-20T01:40:36;14.68;;;5.47;;
70545;SDS011;58098;51.680;5.134;2022-09-20T01:43:09;18.55;;;5.55;;
70545;SDS011;58098;51.680;5.134;2022-09-20T01:45:41;15.97;;;5.63;;
70545;SDS011;58098;51.680;5.134;2022-09-20T01:58:28;16.90;;;4.83;;
70545;SDS011;58098;51.680;5.134;2022-09-20T02:11:15;17.95;;;6.18;;
70545;SDS011;58098;51.680;5.134;2022-09-20T02:24:02;15.47;;;4.57;;
70545;SDS011;58098;51.680;5.134;2022-09-20T02:29:27;14.63;;;4.75;;
70545;SDS011;58098;51.680;5.134;2022-09-20T02:37:14;14.60;;;5.70;;
70545;SDS011;58098;51.680;5.134;2022-09-20T02:39:50;16.85;;;5.47;;
70545;SDS011;58098;51.680;5.134;2022-09-20T02:42:20;13.18;;;5.93;;
70545;SDS011;58098;51.680;5.134;2022-09-20T02:45:06;18.40;;;5.80;;
70545;SDS011;58098;51.680;5.134;2022-09-20T02:47:36;15.52;;;5.82;;
70545;SDS011;58098;51.680;5.134;2022-09-20T02:55:23;14.20;;;5.53;;
70545;SDS011;58098;51.680;5.134;2022-09-20T02:58:12;13.93;;;6.03;;
70545;SDS011;58098;51.680;5.134;2022-09-20T03:00:43;19.33;;;6.70;;
70545;SDS011;58098;51.680;5.134;2022-09-20T03:03:12;15.87;;;7.27;;
70545;SDS011;58098;51.680;5.134;2022-09-20T03:08:19;15.38;;;7.20;;
70545;SDS011;58098;51.680;5.134;2022-09-20T03:20:57;22.55;;;8.85;;
70545;SDS011;58098;51.680;5.134;2022-09-20T03:26:06;21.02;;;9.02;;
70545;SDS011;58098;51.680;5.134;2022-09-20T03:36:27;15.32;;;8.48;;
70545;SDS011;58098;51.680;5.134;2022-09-20T03:41:25;24.20;;;8.80;;
70545;SDS011;58098;51.680;5.134;2022-09-20T03:48:50;20.67;;;8.43;;
70545;SDS011;58098;51.680;5.134;2022-09-20T04:09:26;18.23;;;7.68;;
70545;SDS011;58098;51.680;5.134;2022-09-20T04:17:31;16.60;;;7.47;;
70545;SDS011;58098;51.680;5.134;2022-09-20T04:20:04;14.10;;;7.07;;
70545;SDS011;58098;51.680;5.134;2022-09-20T04:22:31;14.35;;;7.07;;
70545;SDS011;58098;51.680;5.134;2022-09-20T04:25:12;15.77;;;6.57;;
70545;SDS011;58098;51.680;5.134;2022-09-20T04:27:44;18.08;;;6.63;;
70545;SDS011;58098;51.680;5.134;2022-09-20T04:30:21;16.13;;;6.30;;
70545;SDS011;58098;51.680;5.134;2022-09-20T04:38:33;16.77;;;6.25;;
70545;SDS011;58098;51.680;5.134;2022-09-20T04:41:16;14.38;;;6.97;;
70545;SDS011;58098;51.680;5.134;2022-09-20T04:54:24;17.02;;;7.68;;
70545;SDS011;58098;51.680;5.134;2022-09-20T04:57:18;12.55;;;7.10;;
70545;SDS011;58098;51.680;5.134;2022-09-20T05:10:47;15.18;;;7.32;;
70545;SDS011;58098;51.680;5.134;2022-09-20T05:15:52;14.07;;;7.00;;
70545;SDS011;58098;51.680;5.134;2022-09-20T05:18:27;16.30;;;8.27;;
70545;SDS011;58098;51.680;5.134;2022-09-20T05:34:01;20.75;;;9.68;;
70545;SDS011;58098;51.680;5.134;2022-09-20T05:42:03;18.55;;;8.55;;
70545;SDS011;58098;51.680;5.134;2022-09-20T05:54:55;16.10;;;7.68;;
70545;SDS011;58098;51.680;5.134;2022-09-20T06:05:06;12.90;;;7.32;;
70545;SDS011;58098;51.680;5.134;2022-09-20T06:17:58;13.40;;;7.68;;
70545;SDS011;58098;51.680;5.134;2022-09-20T06:22:51;17.37;;;8.10;;
70545;SDS011;58098;51.680;5.134;2022-09-20T06:25:25;20.67;;;8.88;;
70545;SDS011;58098;51.680;5.134;2022-09-20T06:27:55;15.67;;;8.37;;
70545;SDS011;58098;51.680;5.134;2022-09-20T06:30:26;21.27;;;8.90;;
70545;SDS011;58098;51.680;5.134;2022-09-20T06:32:54;17.40;;;8.70;;
70545;SDS011;58098;51.680;5.134;2022-09-20T06:35:19;14.90;;;8.02;;
70545;SDS011;58098;51.680;5.134;2022-09-20T06:37:49;21.13;;;8.23;;
70545;SDS011;58098;51.680;5.134;2022-09-20T06:40:41;13.67;;;7.20;;
70545;SDS011;58098;51.680;5.134;2022-09-20T06:43:27;15.38;;;7.45;;
70545;SDS011;58098;51.680;5.134;2022-09-20T06:45:52;13.50;;;6.80;;
70545;SDS011;58098;51.680;5.134;2022-09-20T06:48:17;12.37;;;6.40;;
70545;SDS011;58098;51.680;5.134;2022-09-20T06:50:43;14.33;;;6.53;;
70545;SDS011;58098;51.680;5.134;2022-09-20T06:53:09;14.60;;;6.00;;
70545;SDS011;58098;51.680;5.134;2022-09-20T06:55:38;12.02;;;6.55;;
70545;SDS011;58098;51.680;5.134;2022-09-20T06:58:04;12.02;;;5.22;;
70545;SDS011;58098;51.680;5.134;2022-09-20T07:00:30;17.97;;;6.33;;
70545;SDS011;58098;51.680;5.134;2022-09-20T07:02:55;10.97;;;5.87;;
70545;SDS011;58098;51.680;5.134;2022-09-20T07:05:20;20.77;;;6.00;;
70545;SDS011;58098;51.680;5.134;2022-09-20T07:07:46;17.80;;;5.67;;
70545;SDS011;58098;51.680;5.134;2022-09-20T07:10:11;11.98;;;4.53;;
70545;SDS011;58098;51.680;5.134;2022-09-20T07:12:37;16.03;;;4.93;;
70545;SDS011;58098;51.680;5.134;2022-09-20T07:15:02;9.77;;;4.13;;
70545;SDS011;58098;51.680;5.134;2022-09-20T07:17:27;13.43;;;4.40;;
70545;SDS011;58098;51.680;5.134;2022-09-20T07:19:53;9.10;;;4.93;;
70545;SDS011;58098;51.680;5.134;2022-09-20T07:22:20;11.35;;;4.30;;
70545;SDS011;58098;51.680;5.134;2022-09-20T07:24:45;8.73;;;4.60;;
70545;SDS011;58098;51.680;5.134;2022-09-20T07:27:12;10.88;;;4.00;;
70545;SDS011;58098;51.680;5.134;2022-09-20T07:29:37;11.40;;;4.27;;
70545;SDS011;58098;51.680;5.134;2022-09-20T07:32:02;8.87;;;3.97;;
70545;SDS011;58098;51.680;5.134;2022-09-20T07:34:27;13.87;;;3.67;;
70545;SDS011;58098;51.680;5.134;2022-09-20T07:36:53;13.27;;;4.03;;
70545;SDS011;58098;51.680;5.134;2022-09-20T07:39:21;12.90;;;3.42;;
70545;SDS011;58098;51.680;5.134;2022-09-20T07:41:46;11.00;;;3.13;;
70545;SDS011;58098;51.680;5.134;2022-09-20T07:44:14;10.95;;;2.90;;
70545;SDS011;58098;51.680;5.134;2022-09-20T07:46:51;6.70;;;2.33;;
70545;SDS011;58098;51.680;5.134;2022-09-20T07:49:17;11.23;;;2.30;;
70545;SDS011;58098;51.680;5.134;2022-09-20T07:51:42;9.87;;;2.10;;
70545;SDS011;58098;51.680;5.134;2022-09-20T07:54:07;9.03;;;2.50;;
70545;SDS011;58098;51.680;5.134;2022-09-20T07:56:33;4.37;;;1.80;;
70545;SDS011;58098;51.680;5.134;2022-09-20T07:58:58;6.35;;;1.63;;
70545;SDS011;58098;51.680;5.134;2022-09-20T08:01:23;11.13;;;1.97;;
70545;SDS011;58098;51.680;5.134;2022-09-20T08:03:49;15.03;;;1.90;;
70545;SDS011;58098;51.680;5.134;2022-09-20T08:06:14;10.40;;;2.33;;
70545;SDS011;58098;51.680;5.134;2022-09-20T08:08:40;9.32;;;2.05;;
70545;SDS011;58098;51.680;5.134;2022-09-20T08:11:07;7.33;;;1.90;;
70545;SDS011;58098;51.680;5.134;2022-09-20T08:13:39;15.03;;;1.60;;
70545;SDS011;58098;51.680;5.134;2022-09-20T08:16:06;13.85;;;1.80;;
70545;SDS011;58098;51.680;5.134;2022-09-20T08:18:31;13.75;;;2.25;;
70545;SDS011;58098;51.680;5.134;2022-09-20T08:21:16;12.00;;;2.20;;
70545;SDS011;58098;51.680;5.134;2022-09-20T08:23:43;14.13;;;2.20;;
70545;SDS011;58098;51.680;5.134;2022-09-20T08:26:09;16.13;;;2.40;;
70545;SDS011;58098;51.680;5.134;2022-09-20T08:28:36;10.93;;;2.10;;
70545;SDS011;58098;51.680;5.134;2022-09-20T08:33:26;8.17;;;1.70;;
70545;SDS011;58098;51.680;5.134;2022-09-20T08:35:52;9.83;;;1.83;;
70545;SDS011;58098;51.680;5.134;2022-09-20T08:38:18;9.32;;;1.80;;
70545;SDS011;58098;51.680;5.134;2022-09-20T08:40:43;11.93;;;2.10;;
70545;SDS011;58098;51.680;5.134;2022-09-20T08:43:09;8.40;;;1.57;;
70545;SDS011;58098;51.680;5.134;2022-09-20T08:45:35;5.22;;;1.40;;
70545;SDS011;58098;51.680;5.134;2022-09-20T08:48:04;9.57;;;1.40;;
70545;SDS011;58098;51.680;5.134;2022-09-20T08:50:30;5.57;;;1.73;;
70545;SDS011;58098;51.680;5.134;2022-09-20T08:52:56;10.40;;;1.70;;
70545;SDS011;58098;51.680;5.134;2022-09-20T08:55:25;11.93;;;1.83;;
70545;SDS011;58098;51.680;5.134;2022-09-20T08:57:56;7.25;;;1.70;;
70545;SDS011;58098;51.680;5.134;2022-09-20T09:00:23;13.13;;;1.87;;
70545;SDS011;58098;51.680;5.134;2022-09-20T09:02:49;5.90;;;1.50;;
70545;SDS011;58098;51.680;5.134;2022-09-20T09:07:50;8.23;;;1.92;;
70545;SDS011;58098;51.680;5.134;2022-09-20T09:10:15;9.60;;;1.53;;
70545;SDS011;58098;51.680;5.134;2022-09-20T09:12:41;5.20;;;1.57;;
70545;SDS011;58098;51.680;5.134;2022-09-20T09:17:45;5.43;;;1.75;;
70545;SDS011;58098;51.680;5.134;2022-09-20T09:22:39;7.25;;;1.90;;
70545;SDS011;58098;51.680;5.134;2022-09-20T09:25:12;7.47;;;1.60;;
70545;SDS011;58098;51.680;5.134;2022-09-20T09:27:53;6.57;;;1.63;;
70545;SDS011;58098;51.680;5.134;2022-09-20T09:30:29;4.40;;;1.40;;
70545;SDS011;58098;51.680;5.134;2022-09-20T09:35:39;6.22;;;1.50;;
70545;SDS011;58098;51.680;5.134;2022-09-20T09:38:04;5.30;;;2.10;;
70545;SDS011;58098;51.680;5.134;2022-09-20T09:40:30;5.90;;;1.60;;
70545;SDS011;58098;51.680;5.134;2022-09-20T09:42:59;7.45;;;2.90;;
70545;SDS011;58098;51.680;5.134;2022-09-20T09:45:26;7.93;;;1.40;;
70545;SDS011;58098;51.680;5.134;2022-09-20T09:47:53;4.22;;;1.70;;
70545;SDS011;58098;51.680;5.134;2022-09-20T09:50:26;8.52;;;1.40;;
70545;SDS011;58098;51.680;5.134;2022-09-20T09:52:55;5.53;;;1.30;;
70545;SDS011;58098;51.680;5.134;2022-09-20T09:55:22;7.97;;;1.65;;
70545;SDS011;58098;51.680;5.134;2022-09-20T09:57:52;4.47;;;1.30;;
70545;SDS011;58098;51.680;5.134;2022-09-20T10:00:21;9.03;;;1.33;;
70545;SDS011;58098;51.680;5.134;2022-09-20T10:08:07;8.52;;;1.50;;
70545;SDS011;58098;51.680;5.134;2022-09-20T10:10:50;4.15;;;1.40;;
70545;SDS011;58098;51.680;5.134;2022-09-20T10:18:33;6.57;;;1.50;;
70545;SDS011;58098;51.680;5.134;2022-09-20T10:34:06;7.13;;;1.30;;
70545;SDS011;58098;51.680;5.134;2022-09-20T10:36:40;7.65;;;1.52;;
70545;SDS011;58098;51.680;5.134;2022-09-20T10:39:11;6.88;;;1.63;;
70545;SDS011;58098;51.680;5.134;2022-09-20T10:47:18;5.27;;;1.50;;
70545;SDS011;58098;51.680;5.134;2022-09-20T10:50:01;5.43;;;1.70;;
70545;SDS011;58098;51.680;5.134;2022-09-20T10:52:41;6.32;;;1.50;;
70545;SDS011;58098;51.680;5.134;2022-09-20T11:05:29;6.80;;;1.50;;
70545;SDS011;58098;51.680;5.134;2022-09-20T11:10:22;8.67;;;1.73;;
70545;SDS011;58098;51.680;5.134;2022-09-20T11:12:54;6.63;;;1.35;;
70545;SDS011;58098;51.680;5.134;2022-09-20T11:15:25;10.30;;;1.30;;
70545;SDS011;58098;51.680;5.134;2022-09-20T11:20:27;5.03;;;1.15;;
70545;SDS011;58098;51.680;5.134;2022-09-20T11:22:59;8.57;;;1.48;;
70545;SDS011;58098;51.680;5.134;2022-09-20T11:25:38;5.72;;;1.50;;
70545;SDS011;58098;51.680;5.134;2022-09-20T11:30:34;4.43;;;1.08;;
70545;SDS011;58098;51.680;5.134;2022-09-20T11:35:34;8.82;;;1.55;;
70545;SDS011;58098;51.680;5.134;2022-09-20T11:40:27;3.38;;;1.20;;
70545;SDS011;58098;51.680;5.134;2022-09-20T11:42:55;4.55;;;1.20;;
70545;SDS011;58098;51.680;5.134;2022-09-20T11:45:21;4.10;;;1.30;;
70545;SDS011;58098;51.680;5.134;2022-09-20T11:47:48;3.72;;;1.10;;
70545;SDS011;58098;51.680;5.134;2022-09-20T11:53:12;12.07;;;1.60;;
70545;SDS011;58098;51.680;5.134;2022-09-20T11:55:46;9.67;;;1.70;;
70545;SDS011;58098;51.680;5.134;2022-09-20T11:58:12;4.68;;;1.50;;
70545;SDS011;58098;51.680;5.134;2022-09-20T12:00:41;6.60;;;1.30;;
70545;SDS011;58098;51.680;5.134;2022-09-20T12:03:53;7.55;;;1.73;;
70545;SDS011;58098;51.680;5.134;2022-09-20T12:06:03;6.63;;;1.40;;
70545;SDS011;58098;51.680;5.134;2022-09-20T12:08:35;6.30;;;1.57;;
70545;SDS011;58098;51.680;5.134;2022-09-20T12:11:02;6.07;;;1.30;;
70545;SDS011;58098;51.680;5.134;2022-09-20T12:13:29;2.90;;;1.50;;
70545;SDS011;58098;51.680;5.134;2022-09-20T12:15:59;4.57;;;1.50;;
70545;SDS011;58098;51.680;5.134;2022-09-20T12:18:29;5.93;;;1.42;;
70545;SDS011;58098;51.680;5.134;2022-09-20T12:26:11;10.65;;;3.38;;
70545;SDS011;58098;51.680;5.134;2022-09-20T12:28:56;10.13;;;3.72;;
70545;SDS011;58098;51.680;5.134;2022-09-20T12:33:56;6.20;;;1.88;;
70545;SDS011;58098;51.680;5.134;2022-09-20T12:36:22;8.07;;;1.80;;
70545;SDS011;58098;51.680;5.134;2022-09-20T12:38:49;5.40;;;1.65;;
70545;SDS011;58098;51.680;5.134;2022-09-20T12:41:17;4.97;;;2.00;;
70545;SDS011;58098;51.680;5.134;2022-09-20T12:43:51;4.30;;;1.60;;
70545;SDS011;58098;51.680;5.134;2022-09-20T12:46:19;5.80;;;1.33;;
70545;SDS011;58098;51.680;5.134;2022-09-20T12:48:44;9.15;;;1.80;;
70545;SDS011;58098;51.680;5.134;2022-09-20T12:54:04;2.42;;;1.10;;
70545;SDS011;58098;51.680;5.134;2022-09-20T12:56:30;5.05;;;1.30;;
70545;SDS011;58098;51.680;5.134;2022-09-20T12:58:58;5.00;;;1.13;;
70545;SDS011;58098;51.680;5.134;2022-09-20T13:01:30;4.22;;;1.70;;
70545;SDS011;58098;51.680;5.134;2022-09-20T13:04:37;4.40;;;1.30;;
70545;SDS011;58098;51.680;5.134;2022-09-20T13:06:40;6.03;;;1.17;;
70545;SDS011;58098;51.680;5.134;2022-09-20T13:09:06;4.00;;;1.40;;
70545;SDS011;58098;51.680;5.134;2022-09-20T13:11:39;6.22;;;1.13;;
70545;SDS011;58098;51.680;5.134;2022-09-20T13:19:28;5.00;;;1.02;;
70545;SDS011;58098;51.680;5.134;2022-09-20T13:24:43;3.65;;;1.27;;
70545;SDS011;58098;51.680;5.134;2022-09-20T13:27:11;3.20;;;1.20;;
70545;SDS011;58098;51.680;5.134;2022-09-20T13:29:42;5.30;;;1.25;;
70545;SDS011;58098;51.680;5.134;2022-09-20T13:32:24;4.32;;;1.20;;
70545;SDS011;58098;51.680;5.134;2022-09-20T13:35:06;4.13;;;1.15;;
70545;SDS011;58098;51.680;5.134;2022-09-20T13:37:32;4.38;;;1.30;;
70545;SDS011;58098;51.680;5.134;2022-09-20T13:39:57;7.27;;;1.20;;
70545;SDS011;58098;51.680;5.134;2022-09-20T13:42:23;4.55;;;1.17;;
70545;SDS011;58098;51.680;5.134;2022-09-20T13:44:50;7.10;;;1.50;;
70545;SDS011;58098;51.680;5.134;2022-09-20T13:47:22;6.45;;;2.00;;
70545;SDS011;58098;51.680;5.134;2022-09-20T13:49:48;5.75;;;1.85;;
70545;SDS011;58098;51.680;5.134;2022-09-20T13:52:20;3.83;;;1.30;;
70545;SDS011;58098;51.680;5.134;2022-09-20T13:54:46;8.50;;;1.88;;
70545;SDS011;58098;51.680;5.134;2022-09-20T13:57:13;6.45;;;1.52;;
70545;SDS011;58098;51.680;5.134;2022-09-20T13:59:43;8.20;;;1.92;;
70545;SDS011;58098;51.680;5.134;2022-09-20T14:02:22;5.38;;;1.67;;
70545;SDS011;58098;51.680;5.134;2022-09-20T14:04:49;7.57;;;1.03;;
70545;SDS011;58098;51.680;5.134;2022-09-20T14:07:15;3.00;;;1.20;;
70545;SDS011;58098;51.680;5.134;2022-09-20T14:09:40;5.97;;;1.50;;
70545;SDS011;58098;51.680;5.134;2022-09-20T14:12:06;3.37;;;1.37;;
70545;SDS011;58098;51.680;5.134;2022-09-20T14:14:32;5.63;;;1.57;;
70545;SDS011;58098;51.680;5.134;2022-09-20T14:16:58;7.68;;;1.52;;
70545;SDS011;58098;51.680;5.134;2022-09-20T14:19:29;6.93;;;1.40;;
70545;SDS011;58098;51.680;5.134;2022-09-20T14:21:56;5.40;;;1.23;;
70545;SDS011;58098;51.680;5.134;2022-09-20T14:24:34;5.05;;;1.30;;
70545;SDS011;58098;51.680;5.134;2022-09-20T14:27:05;2.67;;;1.15;;
70545;SDS011;58098;51.680;5.134;2022-09-20T14:29:37;9.00;;;1.50;;
70545;SDS011;58098;51.680;5.134;2022-09-20T14:34:41;10.00;;;1.65;;
70545;SDS011;58098;51.680;5.134;2022-09-20T14:37:23;4.23;;;1.30;;
70545;SDS011;58098;51.680;5.134;2022-09-20T14:39:52;7.07;;;1.20;;
70545;SDS011;58098;51.680;5.134;2022-09-20T14:42:21;5.43;;;1.17;;
70545;SDS011;58098;51.680;5.134;2022-09-20T14:44:50;5.18;;;1.40;;
70545;SDS011;58098;51.680;5.134;2022-09-20T14:47:22;3.57;;;1.50;;
70545;SDS011;58098;51.680;5.134;2022-09-20T14:49:48;5.30;;;1.23;;
70545;SDS011;58098;51.680;5.134;2022-09-20T14:55:01;3.97;;;1.40;;
70545;SDS011;58098;51.680;5.134;2022-09-20T14:57:27;1.60;;;1.13;;
70545;SDS011;58098;51.680;5.134;2022-09-20T14:59:55;7.47;;;1.40;;
70545;SDS011;58098;51.680;5.134;2022-09-20T15:02:24;3.90;;;1.15;;
70545;SDS011;58098;51.680;5.134;2022-09-20T15:04:53;4.13;;;1.30;;
70545;SDS011;58098;51.680;5.134;2022-09-20T15:07:19;4.17;;;1.27;;
70545;SDS011;58098;51.680;5.134;2022-09-20T15:09:44;2.50;;;1.17;;
70545;SDS011;58098;51.680;5.134;2022-09-20T15:14:34;4.53;;;1.00;;
70545;SDS011;58098;51.680;5.134;2022-09-20T15:17:00;3.33;;;1.10;;
70545;SDS011;58098;51.680;5.134;2022-09-20T15:19:25;4.93;;;1.13;;
70545;SDS011;58098;51.680;5.134;2022-09-20T15:21:51;3.80;;;1.30;;
70545;SDS011;58098;51.680;5.134;2022-09-20T15:24:16;4.50;;;1.70;;
70545;SDS011;58098;51.680;5.134;2022-09-20T15:26:42;4.45;;;1.13;;
70545;SDS011;58098;51.680;5.134;2022-09-20T15:29:11;7.30;;;1.20;;
70545;SDS011;58098;51.680;5.134;2022-09-20T15:31:37;3.67;;;1.27;;
70545;SDS011;58098;51.680;5.134;2022-09-20T15:34:04;3.23;;;1.00;;
70545;SDS011;58098;51.680;5.134;2022-09-20T15:36:30;4.40;;;1.30;;
70545;SDS011;58098;51.680;5.134;2022-09-20T15:38:56;6.25;;;1.58;;
70545;SDS011;58098;51.680;5.134;2022-09-20T15:41:21;5.27;;;1.20;;
70545;SDS011;58098;51.680;5.134;2022-09-20T15:43:46;5.80;;;1.50;;
70545;SDS011;58098;51.680;5.134;2022-09-20T15:46:17;4.68;;;1.30;;
70545;SDS011;58098;51.680;5.134;2022-09-20T15:48:43;8.15;;;1.65;;
70545;SDS011;58098;51.680;5.134;2022-09-20T15:51:09;7.93;;;2.00;;
70545;SDS011;58098;51.680;5.134;2022-09-20T15:53:36;5.97;;;1.67;;
70545;SDS011;58098;51.680;5.134;2022-09-20T15:56:03;5.20;;;1.40;;
70545;SDS011;58098;51.680;5.134;2022-09-20T15:58:29;5.32;;;1.77;;
70545;SDS011;58098;51.680;5.134;2022-09-20T16:01:00;4.03;;;1.40;;
70545;SDS011;58098;51.680;5.134;2022-09-20T16:03:28;4.47;;;1.10;;
70545;SDS011;58098;51.680;5.134;2022-09-20T16:05:58;6.32;;;1.52;;
70545;SDS011;58098;51.680;5.134;2022-09-20T16:08:23;7.65;;;1.40;;
70545;SDS011;58098;51.680;5.134;2022-09-20T16:10:56;6.70;;;1.63;;
70545;SDS011;58098;51.680;5.134;2022-09-20T16:13:21;7.05;;;1.40;;
70545;SDS011;58098;51.680;5.134;2022-09-20T16:15:51;3.77;;;1.40;;
70545;SDS011;58098;51.680;5.134;2022-09-20T16:18:16;5.10;;;1.60;;
70545;SDS011;58098;51.680;5.134;2022-09-20T16:21:04;5.05;;;1.20;;
70545;SDS011;58098;51.680;5.134;2022-09-20T16:23:30;7.23;;;1.40;;
70545;SDS011;58098;51.680;5.134;2022-09-20T16:25:55;5.73;;;1.20;;
70545;SDS011;58098;51.680;5.134;2022-09-20T16:28:20;4.80;;;1.20;;
70545;SDS011;58098;51.680;5.134;2022-09-20T16:30:54;6.83;;;1.27;;
70545;SDS011;58098;51.680;5.134;2022-09-20T16:33:19;5.30;;;1.40;;
70545;SDS011;58098;51.680;5.134;2022-09-20T16:35:44;3.03;;;1.60;;
70545;SDS011;58098;51.680;5.134;2022-09-20T16:38:09;4.97;;;1.67;;
70545;SDS011;58098;51.680;5.134;2022-09-20T16:40:35;5.67;;;1.80;;
70545;SDS011;58098;51.680;5.134;2022-09-20T16:43:00;5.57;;;1.77;;
70545;SDS011;58098;51.680;5.134;2022-09-20T16:45:25;4.10;;;1.43;;
70545;SDS011;58098;51.680;5.134;2022-09-20T16:47:52;4.77;;;1.60;;
70545;SDS011;58098;51.680;5.134;2022-09-20T16:50:21;4.47;;;1.52;;
70545;SDS011;58098;51.680;5.134;2022-09-20T16:52:47;7.93;;;1.60;;
70545;SDS011;58098;51.680;5.134;2022-09-20T16:55:12;4.43;;;1.30;;
70545;SDS011;58098;51.680;5.134;2022-09-20T16:57:37;4.07;;;1.70;;
70545;SDS011;58098;51.680;5.134;2022-09-20T17:00:02;5.00;;;1.50;;
70545;SDS011;58098;51.680;5.134;2022-09-20T17:02:28;2.70;;;1.23;;
70545;SDS011;58098;51.680;5.134;2022-09-20T17:04:53;6.25;;;1.27;;
70545;SDS011;58098;51.680;5.134;2022-09-20T17:07:18;7.67;;;1.20;;
70545;SDS011;58098;51.680;5.134;2022-09-20T17:09:48;5.85;;;1.27;;
70545;SDS011;58098;51.680;5.134;2022-09-20T17:12:13;8.90;;;1.40;;
70545;SDS011;58098;51.680;5.134;2022-09-20T17:14:39;4.97;;;1.40;;
70545;SDS011;58098;51.680;5.134;2022-09-20T17:17:04;6.73;;;1.73;;
70545;SDS011;58098;51.680;5.134;2022-09-20T17:19:29;5.57;;;1.40;;
70545;SDS011;58098;51.680;5.134;2022-09-20T17:21:54;5.30;;;1.60;;
70545;SDS011;58098;51.680;5.134;2022-09-20T17:24:20;4.57;;;1.57;;
70545;SDS011;58098;51.680;5.134;2022-09-20T17:26:45;6.40;;;1.65;;
70545;SDS011;58098;51.680;5.134;2022-09-20T17:29:12;2.53;;;1.33;;
70545;SDS011;58098;51.680;5.134;2022-09-20T17:31:39;6.25;;;2.00;;
70545;SDS011;58098;51.680;5.134;2022-09-20T17:34:06;9.88;;;1.85;;
70545;SDS011;58098;51.680;5.134;2022-09-20T17:36:34;4.53;;;1.50;;
70545;SDS011;58098;51.680;5.134;2022-09-20T17:39:01;10.03;;;2.10;;
70545;SDS011;58098;51.680;5.134;2022-09-20T17:41:27;4.35;;;1.40;;
70545;SDS011;58098;51.680;5.134;2022-09-20T17:43:59;6.70;;;1.75;;
70545;SDS011;58098;51.680;5.134;2022-09-20T17:46:32;6.90;;;1.70;;
70545;SDS011;58098;51.680;5.134;2022-09-20T17:49:00;7.07;;;2.40;;
70545;SDS011;58098;51.680;5.134;2022-09-20T17:51:29;11.43;;;1.90;;
70545;SDS011;58098;51.680;5.134;2022-09-20T17:53:54;9.02;;;2.00;;
70545;SDS011;58098;51.680;5.134;2022-09-20T17:56:20;4.67;;;1.87;;
70545;SDS011;58098;51.680;5.134;2022-09-20T17:58:47;9.23;;;1.95;;
70545;SDS011;58098;51.680;5.134;2022-09-20T18:01:13;7.13;;;2.13;;
70545;SDS011;58098;51.680;5.134;2022-09-20T18:03:39;5.15;;;1.92;;
70545;SDS011;58098;51.680;5.134;2022-09-20T18:09:04;8.77;;;2.15;;
70545;SDS011;58098;51.680;5.134;2022-09-20T18:11:33;6.10;;;2.57;;
70545;SDS011;58098;51.680;5.134;2022-09-20T18:13:59;8.10;;;2.67;;
70545;SDS011;58098;51.680;5.134;2022-09-20T18:16:24;8.98;;;2.78;;
70545;SDS011;58098;51.680;5.134;2022-09-20T18:18:49;8.10;;;2.97;;
70545;SDS011;58098;51.680;5.134;2022-09-20T18:21:16;8.73;;;2.83;;
70545;SDS011;58098;51.680;5.134;2022-09-20T18:23:41;7.32;;;2.85;;
70545;SDS011;58098;51.680;5.134;2022-09-20T18:26:11;6.00;;;2.90;;
70545;SDS011;58098;51.680;5.134;2022-09-20T18:29:06;7.68;;;2.70;;
70545;SDS011;58098;51.680;5.134;2022-09-20T18:34:00;6.50;;;2.55;;
70545;SDS011;58098;51.680;5.134;2022-09-20T18:36:26;6.43;;;2.30;;
70545;SDS011;58098;51.680;5.134;2022-09-20T18:38:52;7.80;;;2.85;;
70545;SDS011;58098;51.680;5.134;2022-09-20T18:41:18;5.03;;;2.22;;
70545;SDS011;58098;51.680;5.134;2022-09-20T18:43:47;6.28;;;2.10;;
70545;SDS011;58098;51.680;5.134;2022-09-20T18:46:12;7.07;;;2.40;;
70545;SDS011;58098;51.680;5.134;2022-09-20T18:48:37;7.43;;;2.67;;
70545;SDS011;58098;51.680;5.134;2022-09-20T18:51:04;8.23;;;2.58;;
70545;SDS011;58098;51.680;5.134;2022-09-20T18:53:30;9.03;;;2.70;;
70545;SDS011;58098;51.680;5.134;2022-09-20T18:56:04;9.68;;;2.88;;
70545;SDS011;58098;51.680;5.134;2022-09-20T18:58:30;6.40;;;2.42;;
70545;SDS011;58098;51.680;5.134;2022-09-20T19:06:23;13.50;;;6.18;;
70545;SDS011;58098;51.680;5.134;2022-09-20T19:08:55;16.67;;;7.30;;
70545;SDS011;58098;51.680;5.134;2022-09-20T19:11:29;9.95;;;5.80;;
70545;SDS011;58098;51.680;5.134;2022-09-20T19:13:59;13.68;;;6.00;;
70545;SDS011;58098;51.680;5.134;2022-09-20T19:16:32;10.88;;;5.55;;
70545;SDS011;58098;51.680;5.134;2022-09-20T19:19:05;15.88;;;6.53;;
70545;SDS011;58098;51.680;5.134;2022-09-20T19:24:18;15.82;;;6.85;;
70545;SDS011;58098;51.680;5.134;2022-09-20T19:26:46;15.38;;;6.88;;
70545;SDS011;58098;51.680;5.134;2022-09-20T19:29:22;19.20;;;6.83;;
70545;SDS011;58098;51.680;5.134;2022-09-20T19:31:50;11.82;;;5.25;;
70545;SDS011;58098;51.680;5.134;2022-09-20T19:34:33;14.07;;;5.88;;
70545;SDS011;58098;51.680;5.134;2022-09-20T19:37:02;10.80;;;5.15;;
70545;SDS011;58098;51.680;5.134;2022-09-20T19:41:55;13.90;;;7.63;;
70545;SDS011;58098;51.680;5.134;2022-09-20T19:49:35;12.35;;;6.20;;
70545;SDS011;58098;51.680;5.134;2022-09-20T19:52:04;14.73;;;6.40;;